Aviation Digital Data Service (ADDS)

Output produced by METARs form (1824 UTC 22 November 2017)
found at http://www.aviationweather.gov/adds/metars/
 
SUCA 221700Z 2218/2318 34010KT 9999 FEW030 TX26/2318Z TN15/2310Z 
     BECMG 2222/2300 36015KT CAVOK 
     TEMPO 2300/2306 33015G25KT
       
SUDU 221700Z 2218/2318 02010KT CAVOK TX28/2318Z TN14/2310Z 
       
SUMU 221700Z 2218/2318 34010KT 9999 FEW030 TX26/2318Z TN15/2310Z 
     BECMG 2222/2300 36015KT CAVOK 
     TEMPO 2300/2306 33015G25KT
       
SUAA 221700Z 2218/2318 34010KT 9999 FEW030 TX26/2318Z TN15/2310Z 
     BECMG 2222/2300 36015KT CAVOK 
     TEMPO 2300/2306 33015G25KT
       
SULS 221700Z 2218/2318 34010KT 9999 FEW030 TX26/2318Z TN15/2310Z 
     BECMG 2222/2300 36015KT CAVOK 
     TEMPO 2300/2306 33015G25KT
       
SURV 221700Z 2218/2318 02010KT CAVOK TX28/2318Z TN14/2310Z 
       
SUSO 221700Z 2218/2318 02010KT CAVOK TX28/2318Z TN14/2310Z